sensor_id;sensor_type;location;lat;lon;timestamp;temperature;humidity
24522;DHT22;12680;57.804;12.190;2022-08-19T00:01:41;19.50;99.90
24522;DHT22;12680;57.804;12.190;2022-08-19T00:04:22;19.40;99.90
24522;DHT22;12680;57.804;12.190;2022-08-19T00:06:58;19.40;99.90
24522;DHT22;12680;57.804;12.190;2022-08-19T00:09:27;19.40;99.90
24522;DHT22;12680;57.804;12.190;2022-08-19T00:11:56;19.40;99.90
24522;DHT22;12680;57.804;12.190;2022-08-19T00:14:32;19.50;99.90
24522;DHT22;12680;57.804;12.190;2022-08-19T00:17:04;19.50;99.90
24522;DHT22;12680;57.804;12.190;2022-08-19T00:19:40;19.60;99.90
24522;DHT22;12680;57.804;12.190;2022-08-19T00:22:10;19.60;99.90
24522;DHT22;12680;57.804;12.190;2022-08-19T00:24:42;19.60;99.90
24522;DHT22;12680;57.804;12.190;2022-08-19T00:27:25;19.60;99.90
24522;DHT22;12680;57.804;12.190;2022-08-19T00:29:57;19.60;99.90
24522;DHT22;12680;57.804;12.190;2022-08-19T00:32:27;19.60;99.90
24522;DHT22;12680;57.804;12.190;2022-08-19T00:34:56;19.60;99.90
24522;DHT22;12680;57.804;12.190;2022-08-19T00:37:33;19.60;99.90
24522;DHT22;12680;57.804;12.190;2022-08-19T00:40:11;19.60;99.90
24522;DHT22;12680;57.804;12.190;2022-08-19T00:42:43;19.60;99.90
24522;DHT22;12680;57.804;12.190;2022-08-19T00:45:21;19.60;99.90
24522;DHT22;12680;57.804;12.190;2022-08-19T00:47:49;19.60;99.90
24522;DHT22;12680;57.804;12.190;2022-08-19T00:50:24;19.60;99.90
24522;DHT22;12680;57.804;12.190;2022-08-19T00:52:57;19.60;99.90
24522;DHT22;12680;57.804;12.190;2022-08-19T00:55:35;19.60;99.90
24522;DHT22;12680;57.804;12.190;2022-08-19T00:58:06;19.60;99.90
24522;DHT22;12680;57.804;12.190;2022-08-19T01:00:35;19.60;99.90
24522;DHT22;12680;57.804;12.190;2022-08-19T01:03:10;19.60;99.90
24522;DHT22;12680;57.804;12.190;2022-08-19T01:05:47;19.60;99.90
24522;DHT22;12680;57.804;12.190;2022-08-19T01:08:22;19.70;99.90
24522;DHT22;12680;57.804;12.190;2022-08-19T01:10:56;19.60;99.90
24522;DHT22;12680;57.804;12.190;2022-08-19T01:13:33;19.60;99.90
24522;DHT22;12680;57.804;12.190;2022-08-19T01:16:17;19.50;99.90
24522;DHT22;12680;57.804;12.190;2022-08-19T01:18:51;19.50;99.90
24522;DHT22;12680;57.804;12.190;2022-08-19T01:21:29;19.40;99.90
24522;DHT22;12680;57.804;12.190;2022-08-19T01:24:06;19.50;99.90
24522;DHT22;12680;57.804;12.190;2022-08-19T01:26:39;19.50;99.90
24522;DHT22;12680;57.804;12.190;2022-08-19T01:29:16;19.50;99.90
24522;DHT22;12680;57.804;12.190;2022-08-19T01:31:47;19.50;99.90
24522;DHT22;12680;57.804;12.190;2022-08-19T01:34:20;19.50;99.90
24522;DHT22;12680;57.804;12.190;2022-08-19T01:36:52;19.40;99.90
24522;DHT22;12680;57.804;12.190;2022-08-19T01:39:29;19.40;99.90
24522;DHT22;12680;57.804;12.190;2022-08-19T01:41:56;19.30;99.90
24522;DHT22;12680;57.804;12.190;2022-08-19T01:44:29;19.30;99.90
24522;DHT22;12680;57.804;12.190;2022-08-19T01:47:00;19.30;99.90
24522;DHT22;12680;57.804;12.190;2022-08-19T01:49:28;19.20;99.90
24522;DHT22;12680;57.804;12.190;2022-08-19T01:52:01;19.20;99.90
24522;DHT22;12680;57.804;12.190;2022-08-19T01:54:30;19.20;99.90
24522;DHT22;12680;57.804;12.190;2022-08-19T01:57:05;19.20;99.90
24522;DHT22;12680;57.804;12.190;2022-08-19T01:59:41;19.20;99.90
24522;DHT22;12680;57.804;12.190;2022-08-19T02:02:13;19.10;99.90
24522;DHT22;12680;57.804;12.190;2022-08-19T02:04:55;19.20;99.90
24522;DHT22;12680;57.804;12.190;2022-08-19T02:07:27;19.10;99.90
24522;DHT22;12680;57.804;12.190;2022-08-19T02:09:58;19.10;99.90
24522;DHT22;12680;57.804;12.190;2022-08-19T02:12:38;19.00;99.90
24522;DHT22;12680;57.804;12.190;2022-08-19T02:15:07;19.00;99.90
24522;DHT22;12680;57.804;12.190;2022-08-19T02:17:36;18.90;99.90
24522;DHT22;12680;57.804;12.190;2022-08-19T02:20:07;18.90;99.90
24522;DHT22;12680;57.804;12.190;2022-08-19T02:22:40;18.90;99.90
24522;DHT22;12680;57.804;12.190;2022-08-19T02:25:17;18.90;99.90
24522;DHT22;12680;57.804;12.190;2022-08-19T02:27:48;18.90;99.90
24522;DHT22;12680;57.804;12.190;2022-08-19T02:30:20;18.80;99.90
24522;DHT22;12680;57.804;12.190;2022-08-19T02:32:49;18.80;99.90
24522;DHT22;12680;57.804;12.190;2022-08-19T02:35:21;18.80;99.90
24522;DHT22;12680;57.804;12.190;2022-08-19T02:37:52;18.80;99.90
24522;DHT22;12680;57.804;12.190;2022-08-19T02:40:38;18.90;99.90
24522;DHT22;12680;57.804;12.190;2022-08-19T02:43:10;18.90;99.90
24522;DHT22;12680;57.804;12.190;2022-08-19T02:45:48;19.00;99.90
24522;DHT22;12680;57.804;12.190;2022-08-19T02:48:24;19.00;99.90
24522;DHT22;12680;57.804;12.190;2022-08-19T02:50:56;19.10;99.90
24522;DHT22;12680;57.804;12.190;2022-08-19T02:53:31;19.00;99.90
24522;DHT22;12680;57.804;12.190;2022-08-19T02:56:06;19.00;99.90
24522;DHT22;12680;57.804;12.190;2022-08-19T02:58:35;19.00;99.90
24522;DHT22;12680;57.804;12.190;2022-08-19T03:01:04;19.00;99.90
24522;DHT22;12680;57.804;12.190;2022-08-19T03:03:37;19.00;99.90
24522;DHT22;12680;57.804;12.190;2022-08-19T03:06:08;19.00;99.90
24522;DHT22;12680;57.804;12.190;2022-08-19T03:08:46;19.00;99.90
24522;DHT22;12680;57.804;12.190;2022-08-19T03:11:20;18.90;99.90
24522;DHT22;12680;57.804;12.190;2022-08-19T03:13:51;19.00;99.90
24522;DHT22;12680;57.804;12.190;2022-08-19T03:16:26;19.00;99.90
24522;DHT22;12680;57.804;12.190;2022-08-19T03:18:58;19.00;99.90
24522;DHT22;12680;57.804;12.190;2022-08-19T03:21:32;19.10;99.90
24522;DHT22;12680;57.804;12.190;2022-08-19T03:24:03;19.10;99.90
24522;DHT22;12680;57.804;12.190;2022-08-19T03:26:39;19.10;99.90
24522;DHT22;12680;57.804;12.190;2022-08-19T03:29:10;19.00;99.90
24522;DHT22;12680;57.804;12.190;2022-08-19T03:31:41;19.10;99.90
24522;DHT22;12680;57.804;12.190;2022-08-19T03:34:28;19.00;99.90
24522;DHT22;12680;57.804;12.190;2022-08-19T03:37:04;19.00;99.90
24522;DHT22;12680;57.804;12.190;2022-08-19T03:39:40;18.90;99.90
24522;DHT22;12680;57.804;12.190;2022-08-19T03:42:15;19.00;99.90
24522;DHT22;12680;57.804;12.190;2022-08-19T03:45:04;18.90;99.90
24522;DHT22;12680;57.804;12.190;2022-08-19T03:47:38;18.90;99.90
24522;DHT22;12680;57.804;12.190;2022-08-19T03:50:05;18.80;99.90
24522;DHT22;12680;57.804;12.190;2022-08-19T03:52:37;18.80;99.90
24522;DHT22;12680;57.804;12.190;2022-08-19T03:55:21;18.90;99.90
24522;DHT22;12680;57.804;12.190;2022-08-19T03:57:48;18.90;99.90
24522;DHT22;12680;57.804;12.190;2022-08-19T04:00:29;18.90;99.90
24522;DHT22;12680;57.804;12.190;2022-08-19T04:02:59;18.90;99.90
24522;DHT22;12680;57.804;12.190;2022-08-19T04:05:32;18.90;99.90
24522;DHT22;12680;57.804;12.190;2022-08-19T04:08:08;18.90;99.90
24522;DHT22;12680;57.804;12.190;2022-08-19T04:10:40;18.90;99.90
24522;DHT22;12680;57.804;12.190;2022-08-19T04:13:10;18.80;99.90
24522;DHT22;12680;57.804;12.190;2022-08-19T04:15:44;18.80;99.90
24522;DHT22;12680;57.804;12.190;2022-08-19T04:18:13;18.90;99.90
24522;DHT22;12680;57.804;12.190;2022-08-19T04:20:46;18.90;99.90
24522;DHT22;12680;57.804;12.190;2022-08-19T04:23:17;18.90;99.90
24522;DHT22;12680;57.804;12.190;2022-08-19T04:25:49;19.00;99.90
24522;DHT22;12680;57.804;12.190;2022-08-19T04:28:16;18.90;99.90
24522;DHT22;12680;57.804;12.190;2022-08-19T04:30:53;18.90;99.90
24522;DHT22;12680;57.804;12.190;2022-08-19T04:33:28;19.00;99.90
24522;DHT22;12680;57.804;12.190;2022-08-19T04:35:55;19.00;99.90
24522;DHT22;12680;57.804;12.190;2022-08-19T04:38:31;19.00;99.90
24522;DHT22;12680;57.804;12.190;2022-08-19T04:41:03;19.00;99.90
24522;DHT22;12680;57.804;12.190;2022-08-19T04:43:49;19.00;99.90
24522;DHT22;12680;57.804;12.190;2022-08-19T04:46:27;19.00;99.90
24522;DHT22;12680;57.804;12.190;2022-08-19T04:49:14;19.10;99.90
24522;DHT22;12680;57.804;12.190;2022-08-19T04:51:50;19.10;99.90
24522;DHT22;12680;57.804;12.190;2022-08-19T04:54:23;19.10;99.90
24522;DHT22;12680;57.804;12.190;2022-08-19T04:57:07;19.10;99.90
24522;DHT22;12680;57.804;12.190;2022-08-19T04:59:42;19.00;99.90
24522;DHT22;12680;57.804;12.190;2022-08-19T05:02:12;19.10;99.90
24522;DHT22;12680;57.804;12.190;2022-08-19T05:04:59;19.10;99.90
24522;DHT22;12680;57.804;12.190;2022-08-19T05:07:35;19.10;99.90
24522;DHT22;12680;57.804;12.190;2022-08-19T05:10:17;19.00;99.90
24522;DHT22;12680;57.804;12.190;2022-08-19T05:12:45;19.00;99.90
24522;DHT22;12680;57.804;12.190;2022-08-19T05:15:16;19.10;99.90
24522;DHT22;12680;57.804;12.190;2022-08-19T05:17:51;19.10;99.90
24522;DHT22;12680;57.804;12.190;2022-08-19T05:20:44;19.10;99.90
24522;DHT22;12680;57.804;12.190;2022-08-19T05:23:30;19.10;99.90
24522;DHT22;12680;57.804;12.190;2022-08-19T05:25:58;19.10;99.90
24522;DHT22;12680;57.804;12.190;2022-08-19T05:28:31;19.20;99.90
24522;DHT22;12680;57.804;12.190;2022-08-19T05:30:59;19.20;99.90
24522;DHT22;12680;57.804;12.190;2022-08-19T05:33:33;19.30;99.90
24522;DHT22;12680;57.804;12.190;2022-08-19T05:36:02;19.30;99.90
24522;DHT22;12680;57.804;12.190;2022-08-19T05:38:34;19.30;99.90
24522;DHT22;12680;57.804;12.190;2022-08-19T05:41:15;19.40;99.90
24522;DHT22;12680;57.804;12.190;2022-08-19T05:43:44;19.40;99.90
24522;DHT22;12680;57.804;12.190;2022-08-19T05:46:20;19.40;99.90
24522;DHT22;12680;57.804;12.190;2022-08-19T05:48:55;19.50;99.90
24522;DHT22;12680;57.804;12.190;2022-08-19T05:51:33;19.40;99.90
24522;DHT22;12680;57.804;12.190;2022-08-19T05:54:06;19.40;99.90
24522;DHT22;12680;57.804;12.190;2022-08-19T05:56:36;19.50;99.90
24522;DHT22;12680;57.804;12.190;2022-08-19T05:59:11;19.50;99.90
24522;DHT22;12680;57.804;12.190;2022-08-19T06:01:49;19.50;99.90
24522;DHT22;12680;57.804;12.190;2022-08-19T06:04:29;19.50;99.90
24522;DHT22;12680;57.804;12.190;2022-08-19T06:07:01;19.50;99.90
24522;DHT22;12680;57.804;12.190;2022-08-19T06:09:41;19.50;99.90
24522;DHT22;12680;57.804;12.190;2022-08-19T06:12:34;19.50;99.90
24522;DHT22;12680;57.804;12.190;2022-08-19T06:15:10;19.60;99.90
24522;DHT22;12680;57.804;12.190;2022-08-19T06:17:42;19.70;99.90
24522;DHT22;12680;57.804;12.190;2022-08-19T06:20:15;19.70;99.90
24522;DHT22;12680;57.804;12.190;2022-08-19T06:23:08;19.80;99.90
24522;DHT22;12680;57.804;12.190;2022-08-19T06:25:47;20.00;99.90
24522;DHT22;12680;57.804;12.190;2022-08-19T06:28:25;20.10;99.90
24522;DHT22;12680;57.804;12.190;2022-08-19T06:30:53;20.20;99.90
24522;DHT22;12680;57.804;12.190;2022-08-19T06:33:24;20.20;99.90
24522;DHT22;12680;57.804;12.190;2022-08-19T06:35:55;20.30;99.90
24522;DHT22;12680;57.804;12.190;2022-08-19T06:38:26;20.40;99.90
24522;DHT22;12680;57.804;12.190;2022-08-19T06:41:05;20.30;99.90
24522;DHT22;12680;57.804;12.190;2022-08-19T06:43:43;20.40;99.90
24522;DHT22;12680;57.804;12.190;2022-08-19T06:46:17;20.50;99.90
24522;DHT22;12680;57.804;12.190;2022-08-19T06:48:48;20.50;99.90
24522;DHT22;12680;57.804;12.190;2022-08-19T06:51:22;20.60;99.90
24522;DHT22;12680;57.804;12.190;2022-08-19T06:53:55;20.60;99.90
24522;DHT22;12680;57.804;12.190;2022-08-19T06:56:28;20.50;99.90
24522;DHT22;12680;57.804;12.190;2022-08-19T06:59:09;20.40;99.90
24522;DHT22;12680;57.804;12.190;2022-08-19T07:01:42;20.40;99.90
24522;DHT22;12680;57.804;12.190;2022-08-19T07:04:14;20.60;99.90
24522;DHT22;12680;57.804;12.190;2022-08-19T07:06:46;20.70;99.90
24522;DHT22;12680;57.804;12.190;2022-08-19T07:09:21;20.90;99.90
24522;DHT22;12680;57.804;12.190;2022-08-19T07:11:50;21.00;99.90
24522;DHT22;12680;57.804;12.190;2022-08-19T07:14:27;21.10;99.90
24522;DHT22;12680;57.804;12.190;2022-08-19T07:17:06;21.20;99.90
24522;DHT22;12680;57.804;12.190;2022-08-19T07:19:41;21.30;99.90
24522;DHT22;12680;57.804;12.190;2022-08-19T07:22:14;21.40;99.90
24522;DHT22;12680;57.804;12.190;2022-08-19T07:24:48;21.60;99.90
24522;DHT22;12680;57.804;12.190;2022-08-19T07:27:19;21.70;99.90
24522;DHT22;12680;57.804;12.190;2022-08-19T07:29:52;21.90;99.90
24522;DHT22;12680;57.804;12.190;2022-08-19T07:32:24;22.00;99.90
24522;DHT22;12680;57.804;12.190;2022-08-19T07:34:58;22.10;99.90
24522;DHT22;12680;57.804;12.190;2022-08-19T07:37:29;22.10;99.90
24522;DHT22;12680;57.804;12.190;2022-08-19T07:40:06;22.20;99.90
24522;DHT22;12680;57.804;12.190;2022-08-19T07:42:34;22.30;99.90
24522;DHT22;12680;57.804;12.190;2022-08-19T07:45:09;22.40;99.90
24522;DHT22;12680;57.804;12.190;2022-08-19T07:47:37;22.50;99.90
24522;DHT22;12680;57.804;12.190;2022-08-19T07:50:18;22.50;99.90
24522;DHT22;12680;57.804;12.190;2022-08-19T07:52:55;22.50;99.90
24522;DHT22;12680;57.804;12.190;2022-08-19T07:55:29;22.60;99.90
24522;DHT22;12680;57.804;12.190;2022-08-19T07:58:29;22.60;99.90
24522;DHT22;12680;57.804;12.190;2022-08-19T08:01:06;22.70;99.90
24522;DHT22;12680;57.804;12.190;2022-08-19T08:03:35;22.80;99.90
24522;DHT22;12680;57.804;12.190;2022-08-19T08:06:22;22.80;99.90
24522;DHT22;12680;57.804;12.190;2022-08-19T08:09:09;22.90;99.90
24522;DHT22;12680;57.804;12.190;2022-08-19T08:12:00;22.90;99.90
24522;DHT22;12680;57.804;12.190;2022-08-19T08:14:58;22.80;99.90
24522;DHT22;12680;57.804;12.190;2022-08-19T08:17:37;23.80;99.90
24522;DHT22;12680;57.804;12.190;2022-08-19T08:20:22;22.70;99.90
24522;DHT22;12680;57.804;12.190;2022-08-19T08:23:00;22.70;99.90
24522;DHT22;12680;57.804;12.190;2022-08-19T08:25:49;22.80;99.90
24522;DHT22;12680;57.804;12.190;2022-08-19T08:28:18;23.00;99.90
24522;DHT22;12680;57.804;12.190;2022-08-19T08:30:47;23.00;99.90
24522;DHT22;12680;57.804;12.190;2022-08-19T08:33:22;23.00;99.90
24522;DHT22;12680;57.804;12.190;2022-08-19T08:36:07;23.00;99.90
24522;DHT22;12680;57.804;12.190;2022-08-19T08:38:43;23.00;99.90
24522;DHT22;12680;57.804;12.190;2022-08-19T08:44:02;22.70;99.90
24522;DHT22;12680;57.804;12.190;2022-08-19T08:46:48;22.60;99.90
24522;DHT22;12680;57.804;12.190;2022-08-19T08:52:26;22.50;99.90
24522;DHT22;12680;57.804;12.190;2022-08-19T08:55:11;22.50;99.90
24522;DHT22;12680;57.804;12.190;2022-08-19T08:57:59;22.50;99.90
24522;DHT22;12680;57.804;12.190;2022-08-19T09:00:35;22.70;99.90
24522;DHT22;12680;57.804;12.190;2022-08-19T09:03:10;22.80;99.90
24522;DHT22;12680;57.804;12.190;2022-08-19T09:11:39;23.40;99.90
24522;DHT22;12680;57.804;12.190;2022-08-19T09:17:22;23.40;99.90
24522;DHT22;12680;57.804;12.190;2022-08-19T09:20:20;23.20;99.90
24522;DHT22;12680;57.804;12.190;2022-08-19T09:22:49;23.60;99.90
24522;DHT22;12680;57.804;12.190;2022-08-19T09:25:22;23.90;99.90
24522;DHT22;12680;57.804;12.190;2022-08-19T09:27:57;24.20;99.90
24522;DHT22;12680;57.804;12.190;2022-08-19T09:30:48;24.40;99.90
24522;DHT22;12680;57.804;12.190;2022-08-19T09:33:22;24.80;99.90
24522;DHT22;12680;57.804;12.190;2022-08-19T09:36:04;25.00;99.90
24522;DHT22;12680;57.804;12.190;2022-08-19T09:38:36;25.00;99.40
24522;DHT22;12680;57.804;12.190;2022-08-19T09:41:17;25.00;99.50
24522;DHT22;12680;57.804;12.190;2022-08-19T09:43:46;25.20;99.40
24522;DHT22;12680;57.804;12.190;2022-08-19T09:46:15;25.30;99.30
24522;DHT22;12680;57.804;12.190;2022-08-19T09:48:53;25.40;99.20
24522;DHT22;12680;57.804;12.190;2022-08-19T09:51:27;25.50;99.10
24522;DHT22;12680;57.804;12.190;2022-08-19T09:54:02;25.70;98.90
24522;DHT22;12680;57.804;12.190;2022-08-19T09:56:35;26.00;98.90
24522;DHT22;12680;57.804;12.190;2022-08-19T09:59:08;26.20;98.20
24522;DHT22;12680;57.804;12.190;2022-08-19T10:01:42;26.30;98.10
24522;DHT22;12680;57.804;12.190;2022-08-19T10:04:18;26.50;98.10
24522;DHT22;12680;57.804;12.190;2022-08-19T10:06:51;26.60;97.70
24522;DHT22;12680;57.804;12.190;2022-08-19T10:09:28;26.70;97.40
24522;DHT22;12680;57.804;12.190;2022-08-19T10:12:04;26.80;97.30
24522;DHT22;12680;57.804;12.190;2022-08-19T10:14:46;27.00;97.10
24522;DHT22;12680;57.804;12.190;2022-08-19T10:17:21;26.90;96.70
24522;DHT22;12680;57.804;12.190;2022-08-19T10:20:06;26.70;96.50
24522;DHT22;12680;57.804;12.190;2022-08-19T10:22:37;26.70;96.60
24522;DHT22;12680;57.804;12.190;2022-08-19T10:25:09;26.70;96.70
24522;DHT22;12680;57.804;12.190;2022-08-19T10:27:43;26.80;96.80
24522;DHT22;12680;57.804;12.190;2022-08-19T10:30:27;26.90;96.60
24522;DHT22;12680;57.804;12.190;2022-08-19T10:32:58;27.10;96.40
24522;DHT22;12680;57.804;12.190;2022-08-19T10:35:41;27.10;96.50
24522;DHT22;12680;57.804;12.190;2022-08-19T10:38:23;27.10;95.80
24522;DHT22;12680;57.804;12.190;2022-08-19T10:41:07;27.00;95.90
24522;DHT22;12680;57.804;12.190;2022-08-19T10:43:39;27.00;96.00
24522;DHT22;12680;57.804;12.190;2022-08-19T10:46:08;27.00;96.10
24522;DHT22;12680;57.804;12.190;2022-08-19T10:48:45;27.00;95.70
24522;DHT22;12680;57.804;12.190;2022-08-19T10:51:13;27.00;95.80
24522;DHT22;12680;57.804;12.190;2022-08-19T10:54:04;27.00;95.90
24522;DHT22;12680;57.804;12.190;2022-08-19T10:56:38;27.00;96.00
24522;DHT22;12680;57.804;12.190;2022-08-19T10:59:29;27.00;96.10
24522;DHT22;12680;57.804;12.190;2022-08-19T11:02:03;27.10;96.00
24522;DHT22;12680;57.804;12.190;2022-08-19T11:04:35;27.10;95.60
24522;DHT22;12680;57.804;12.190;2022-08-19T11:07:04;27.10;95.40
24522;DHT22;12680;57.804;12.190;2022-08-19T11:09:40;27.00;95.50
24522;DHT22;12680;57.804;12.190;2022-08-19T11:12:14;27.20;95.70
24522;DHT22;12680;57.804;12.190;2022-08-19T11:14:45;27.40;95.70
24522;DHT22;12680;57.804;12.190;2022-08-19T11:17:16;27.40;95.10
24522;DHT22;12680;57.804;12.190;2022-08-19T11:19:49;27.50;95.10
24522;DHT22;12680;57.804;12.190;2022-08-19T11:22:23;27.70;95.20
24522;DHT22;12680;57.804;12.190;2022-08-19T11:25:04;28.10;95.20
24522;DHT22;12680;57.804;12.190;2022-08-19T11:27:34;28.30;94.50
24522;DHT22;12680;57.804;12.190;2022-08-19T11:30:05;28.30;94.00
24522;DHT22;12680;57.804;12.190;2022-08-19T11:32:39;28.30;94.00
24522;DHT22;12680;57.804;12.190;2022-08-19T11:35:19;28.40;94.00
24522;DHT22;12680;57.804;12.190;2022-08-19T11:37:50;28.30;93.80
24522;DHT22;12680;57.804;12.190;2022-08-19T11:40:17;28.20;93.80
24522;DHT22;12680;57.804;12.190;2022-08-19T11:42:50;28.10;93.90
24522;DHT22;12680;57.804;12.190;2022-08-19T11:45:31;28.00;94.10
24522;DHT22;12680;57.804;12.190;2022-08-19T11:48:06;28.00;94.30
24522;DHT22;12680;57.804;12.190;2022-08-19T12:18:08;28.70;92.60
24522;DHT22;12680;57.804;12.190;2022-08-19T12:20:38;28.70;93.00
24522;DHT22;12680;57.804;12.190;2022-08-19T12:23:07;28.70;93.00
24522;DHT22;12680;57.804;12.190;2022-08-19T12:25:37;28.70;93.10
24522;DHT22;12680;57.804;12.190;2022-08-19T12:28:04;28.70;93.20
24522;DHT22;12680;57.804;12.190;2022-08-19T12:30:41;28.70;93.10
24522;DHT22;12680;57.804;12.190;2022-08-19T12:33:14;28.70;93.10
24522;DHT22;12680;57.804;12.190;2022-08-19T12:35:44;28.70;92.80
24522;DHT22;12680;57.804;12.190;2022-08-19T12:38:13;28.70;92.80
24522;DHT22;12680;57.804;12.190;2022-08-19T12:40:41;28.70;92.80
24522;DHT22;12680;57.804;12.190;2022-08-19T12:43:15;28.70;92.60
24522;DHT22;12680;57.804;12.190;2022-08-19T12:45:43;28.50;92.50
24522;DHT22;12680;57.804;12.190;2022-08-19T12:48:13;28.40;92.70
24522;DHT22;12680;57.804;12.190;2022-08-19T12:51:12;28.50;92.90
24522;DHT22;12680;57.804;12.190;2022-08-19T12:53:40;28.50;93.00
24522;DHT22;12680;57.804;12.190;2022-08-19T12:56:11;28.50;92.90
24522;DHT22;12680;57.804;12.190;2022-08-19T12:58:46;28.50;92.90
24522;DHT22;12680;57.804;12.190;2022-08-19T13:01:17;28.50;92.80
24522;DHT22;12680;57.804;12.190;2022-08-19T13:03:49;28.50;92.70
24522;DHT22;12680;57.804;12.190;2022-08-19T13:06:24;28.40;92.90
24522;DHT22;12680;57.804;12.190;2022-08-19T13:08:55;28.50;93.00
24522;DHT22;12680;57.804;12.190;2022-08-19T13:11:26;28.50;93.00
24522;DHT22;12680;57.804;12.190;2022-08-19T13:14:00;28.50;93.10
24522;DHT22;12680;57.804;12.190;2022-08-19T13:16:31;28.50;93.00
24522;DHT22;12680;57.804;12.190;2022-08-19T13:19:04;28.60;92.60
24522;DHT22;12680;57.804;12.190;2022-08-19T13:21:36;28.60;92.90
24522;DHT22;12680;57.804;12.190;2022-08-19T13:24:09;28.70;92.90
24522;DHT22;12680;57.804;12.190;2022-08-19T13:26:40;28.80;92.60
24522;DHT22;12680;57.804;12.190;2022-08-19T13:29:14;28.80;92.80
24522;DHT22;12680;57.804;12.190;2022-08-19T13:32:00;28.80;92.20
24522;DHT22;12680;57.804;12.190;2022-08-19T13:34:47;28.60;92.20
24522;DHT22;12680;57.804;12.190;2022-08-19T13:37:14;28.50;92.50
24522;DHT22;12680;57.804;12.190;2022-08-19T13:39:42;28.40;92.50
24522;DHT22;12680;57.804;12.190;2022-08-19T13:42:13;28.40;92.60
24522;DHT22;12680;57.804;12.190;2022-08-19T13:44:43;28.40;92.40
24522;DHT22;12680;57.804;12.190;2022-08-19T13:47:16;28.40;92.50
24522;DHT22;12680;57.804;12.190;2022-08-19T13:49:43;28.30;92.40
24522;DHT22;12680;57.804;12.190;2022-08-19T13:52:15;28.20;92.50
24522;DHT22;12680;57.804;12.190;2022-08-19T13:54:45;28.30;92.70
24522;DHT22;12680;57.804;12.190;2022-08-19T13:57:14;28.30;92.70
24522;DHT22;12680;57.804;12.190;2022-08-19T13:59:41;28.50;92.60
24522;DHT22;12680;57.804;12.190;2022-08-19T14:02:16;28.50;92.80
24522;DHT22;12680;57.804;12.190;2022-08-19T14:04:44;28.60;92.50
24522;DHT22;12680;57.804;12.190;2022-08-19T14:07:11;28.60;92.10
24522;DHT22;12680;57.804;12.190;2022-08-19T14:09:38;28.60;92.10
24522;DHT22;12680;57.804;12.190;2022-08-19T14:12:19;28.70;92.10
24522;DHT22;12680;57.804;12.190;2022-08-19T14:14:54;28.60;92.00
24522;DHT22;12680;57.804;12.190;2022-08-19T14:17:29;28.60;92.20
24522;DHT22;12680;57.804;12.190;2022-08-19T14:20:03;28.60;92.40
24522;DHT22;12680;57.804;12.190;2022-08-19T14:22:39;28.60;92.40
24522;DHT22;12680;57.804;12.190;2022-08-19T14:25:18;28.60;92.30
24522;DHT22;12680;57.804;12.190;2022-08-19T14:27:51;28.60;92.30
24522;DHT22;12680;57.804;12.190;2022-08-19T14:30:30;28.50;92.20
24522;DHT22;12680;57.804;12.190;2022-08-19T14:33:01;28.60;92.20
24522;DHT22;12680;57.804;12.190;2022-08-19T14:53:16;28.70;91.40
24522;DHT22;12680;57.804;12.190;2022-08-19T14:55:45;28.70;91.60
24522;DHT22;12680;57.804;12.190;2022-08-19T14:58:17;28.60;91.80
24522;DHT22;12680;57.804;12.190;2022-08-19T15:00:57;28.60;92.10
24522;DHT22;12680;57.804;12.190;2022-08-19T15:03:27;28.60;92.20
24522;DHT22;12680;57.804;12.190;2022-08-19T15:06:00;28.70;91.80
24522;DHT22;12680;57.804;12.190;2022-08-19T15:08:33;28.80;92.20
24522;DHT22;12680;57.804;12.190;2022-08-19T15:11:07;28.80;92.00
24522;DHT22;12680;57.804;12.190;2022-08-19T15:13:42;28.90;92.00
24522;DHT22;12680;57.804;12.190;2022-08-19T15:16:10;28.90;91.80
24522;DHT22;12680;57.804;12.190;2022-08-19T15:18:45;28.80;91.70
24522;DHT22;12680;57.804;12.190;2022-08-19T15:21:13;28.70;92.00
24522;DHT22;12680;57.804;12.190;2022-08-19T15:23:57;28.70;92.00
24522;DHT22;12680;57.804;12.190;2022-08-19T15:26:25;28.60;92.00
24522;DHT22;12680;57.804;12.190;2022-08-19T15:28:54;28.60;92.10
24522;DHT22;12680;57.804;12.190;2022-08-19T15:31:29;28.50;92.00
24522;DHT22;12680;57.804;12.190;2022-08-19T15:34:06;28.30;92.10
24522;DHT22;12680;57.804;12.190;2022-08-19T15:36:41;28.20;92.20
24522;DHT22;12680;57.804;12.190;2022-08-19T15:39:12;27.90;92.20
24522;DHT22;12680;57.804;12.190;2022-08-19T15:41:49;27.70;92.50
24522;DHT22;12680;57.804;12.190;2022-08-19T15:44:21;27.50;92.70
24522;DHT22;12680;57.804;12.190;2022-08-19T15:46:49;27.30;93.00
24522;DHT22;12680;57.804;12.190;2022-08-19T15:49:18;27.20;93.40
24522;DHT22;12680;57.804;12.190;2022-08-19T15:51:48;27.10;93.70
24522;DHT22;12680;57.804;12.190;2022-08-19T15:54:20;26.90;93.50
24522;DHT22;12680;57.804;12.190;2022-08-19T15:56:52;26.60;93.70
24522;DHT22;12680;57.804;12.190;2022-08-19T15:59:42;26.40;93.90
24522;DHT22;12680;57.804;12.190;2022-08-19T16:02:35;26.20;94.20
24522;DHT22;12680;57.804;12.190;2022-08-19T16:05:25;26.00;94.10
24522;DHT22;12680;57.804;12.190;2022-08-19T16:08:13;25.70;94.10
24522;DHT22;12680;57.804;12.190;2022-08-19T16:10:46;25.50;94.20
24522;DHT22;12680;57.804;12.190;2022-08-19T16:13:13;25.30;94.50
24522;DHT22;12680;57.804;12.190;2022-08-19T16:15:44;25.20;94.80
24522;DHT22;12680;57.804;12.190;2022-08-19T16:18:15;25.00;94.90
24522;DHT22;12680;57.804;12.190;2022-08-19T16:20:42;25.00;95.10
24522;DHT22;12680;57.804;12.190;2022-08-19T16:23:18;24.90;95.10
24522;DHT22;12680;57.804;12.190;2022-08-19T16:25:49;24.80;95.10
24522;DHT22;12680;57.804;12.190;2022-08-19T16:28:17;24.70;95.30
24522;DHT22;12680;57.804;12.190;2022-08-19T16:30:53;24.60;95.40
24522;DHT22;12680;57.804;12.190;2022-08-19T16:33:24;24.50;95.50
24522;DHT22;12680;57.804;12.190;2022-08-19T16:35:55;24.50;95.60
24522;DHT22;12680;57.804;12.190;2022-08-19T16:38:26;24.40;95.40
24522;DHT22;12680;57.804;12.190;2022-08-19T16:40:55;24.40;95.40
24522;DHT22;12680;57.804;12.190;2022-08-19T16:43:26;24.20;95.40
24522;DHT22;12680;57.804;12.190;2022-08-19T16:45:54;24.10;95.60
24522;DHT22;12680;57.804;12.190;2022-08-19T16:48:27;24.00;95.60
24522;DHT22;12680;57.804;12.190;2022-08-19T16:51:00;23.90;95.60
24522;DHT22;12680;57.804;12.190;2022-08-19T16:53:30;23.80;95.70
24522;DHT22;12680;57.804;12.190;2022-08-19T16:56:04;23.70;95.80
24522;DHT22;12680;57.804;12.190;2022-08-19T16:58:33;23.70;95.80
24522;DHT22;12680;57.804;12.190;2022-08-19T17:01:06;23.60;95.90